createdAt,value
2023-05-08T00:02:14.229Z,5.13
2023-05-08T00:04:40.925Z,4.98
2023-05-08T00:07:07.623Z,5.31
2023-05-08T00:09:34.252Z,5.35
2023-05-08T00:12:00.911Z,5.31
2023-05-08T00:14:27.539Z,5.52
2023-05-08T00:16:54.218Z,4.29
2023-05-08T00:19:20.895Z,5.47
2023-05-08T00:21:47.545Z,5.58
2023-05-08T00:24:14.759Z,3.10
2023-05-08T00:26:42.050Z,5.84
2023-05-08T00:29:08.710Z,5.19
2023-05-08T00:31:35.378Z,5.24
2023-05-08T00:34:02.018Z,5.18
2023-05-08T00:36:28.764Z,4.15
2023-05-08T00:38:55.526Z,5.00
2023-05-08T00:41:22.188Z,5.28
2023-05-08T00:43:49.072Z,5.25
2023-05-08T00:46:15.908Z,4.86
2023-05-08T00:48:42.511Z,5.02
2023-05-08T00:51:11.167Z,5.56
2023-05-08T00:53:39.834Z,5.61
2023-05-08T00:56:06.698Z,5.54
2023-05-08T00:58:33.679Z,4.81
2023-05-08T01:01:00.621Z,5.28
2023-05-08T01:03:27.505Z,3.77
2023-05-08T01:05:54.617Z,5.35
2023-05-08T01:08:21.267Z,5.45
2023-05-08T01:11:03.489Z,5.51
2023-05-08T01:13:54.162Z,5.56
2023-05-08T01:16:30.578Z,4.86
2023-05-08T01:19:04.267Z,5.17
2023-05-08T01:21:43.220Z,5.50
2023-05-08T01:24:16.013Z,5.50
2023-05-08T01:27:06.787Z,5.51
2023-05-08T01:30:01.306Z,5.42
2023-05-08T01:32:35.519Z,4.98
2023-05-08T01:35:45.103Z,5.37
2023-05-08T01:38:31.530Z,4.88
2023-05-08T01:41:28.386Z,4.92
2023-05-08T01:44:06.586Z,4.22
2023-05-08T01:46:33.923Z,4.76
2023-05-08T01:49:07.179Z,4.82
2023-05-08T01:51:40.871Z,2.90
2023-05-08T01:54:10.348Z,3.70
2023-05-08T01:56:38.102Z,4.83
2023-05-08T01:59:04.735Z,5.08
2023-05-08T02:01:32.104Z,4.84
2023-05-08T02:03:58.853Z,4.72
2023-05-08T02:06:25.684Z,4.86
2023-05-08T02:08:52.338Z,5.00
2023-05-08T02:11:19.379Z,4.56
2023-05-08T02:13:47.280Z,5.18
2023-05-08T02:16:13.923Z,4.60
2023-05-08T02:18:43.265Z,4.92
2023-05-08T02:21:09.982Z,5.25
2023-05-08T02:23:36.611Z,4.37
2023-05-08T02:26:04.014Z,4.68
2023-05-08T02:28:30.815Z,4.56
2023-05-08T02:30:58.297Z,4.16
2023-05-08T02:33:25.065Z,4.64
2023-05-08T02:35:52.026Z,4.64
2023-05-08T02:38:20.779Z,3.99
2023-05-08T02:40:53.285Z,4.67
2023-05-08T02:43:19.875Z,4.61
2023-05-08T02:45:49.854Z,4.92
2023-05-08T02:48:20.891Z,5.14
2023-05-08T02:51:06.356Z,5.11
2023-05-08T02:53:39.930Z,5.11
2023-05-08T02:56:11.302Z,4.15
2023-05-08T02:58:43.535Z,4.66
2023-05-08T03:01:27.580Z,5.06
2023-05-08T03:04:06.269Z,4.71
2023-05-08T03:06:37.055Z,4.36
2023-05-08T03:09:04.223Z,4.18
2023-05-08T03:11:42.428Z,4.33
2023-05-08T03:14:13.472Z,4.26
2023-05-08T03:16:41.518Z,4.28
2023-05-08T03:19:24.174Z,4.45
2023-05-08T03:21:51.902Z,4.10
2023-05-08T03:24:18.543Z,4.40
2023-05-08T03:26:45.165Z,2.98
2023-05-08T03:29:13.512Z,3.90
2023-05-08T03:31:40.598Z,3.80
2023-05-08T03:34:07.410Z,2.96
2023-05-08T03:36:34.093Z,4.19
2023-05-08T03:39:00.675Z,4.69
2023-05-08T03:41:27.319Z,4.21
2023-05-08T03:43:54.660Z,4.23
2023-05-08T03:46:21.316Z,4.45
2023-05-08T03:48:48.037Z,3.59
2023-05-08T03:51:15.298Z,4.68
2023-05-08T03:53:41.950Z,4.49
2023-05-08T03:56:08.581Z,4.53
2023-05-08T03:58:38.043Z,4.01
2023-05-08T04:01:16.680Z,4.90
2023-05-08T04:03:57.987Z,4.11
2023-05-08T04:06:48.462Z,3.79
2023-05-08T04:09:34.373Z,4.98
2023-05-08T04:12:02.558Z,4.98
2023-05-08T04:14:32.408Z,4.91
2023-05-08T04:17:02.764Z,4.81
2023-05-08T04:19:30.331Z,3.81
2023-05-08T04:21:59.384Z,4.85
2023-05-08T04:24:26.647Z,5.50
2023-05-08T04:26:53.282Z,5.27
2023-05-08T04:29:19.879Z,5.07
2023-05-08T04:31:47.149Z,5.69
2023-05-08T04:34:14.065Z,5.29
2023-05-08T04:36:40.720Z,5.13
2023-05-08T04:39:07.387Z,6.00
2023-05-08T04:41:35.608Z,6.38
2023-05-08T04:44:03.570Z,6.37
2023-05-08T04:46:30.252Z,4.87
2023-05-08T04:48:57.070Z,5.72
2023-05-08T04:51:23.662Z,6.75
2023-05-08T04:53:50.913Z,6.90
2023-05-08T04:56:19.335Z,6.31
2023-05-08T04:58:45.961Z,6.54
2023-05-08T05:01:12.780Z,6.52
2023-05-08T05:03:39.423Z,6.44
2023-05-08T05:06:06.920Z,6.93
2023-05-08T05:08:33.690Z,6.51
2023-05-08T05:11:00.369Z,5.12
2023-05-08T05:13:27.161Z,5.16
2023-05-08T05:15:54.606Z,6.46
2023-05-08T05:18:21.355Z,6.78
2023-05-08T05:20:47.963Z,7.33
2023-05-08T05:23:14.689Z,8.17
2023-05-08T05:25:41.389Z,7.42
2023-05-08T05:28:08.065Z,10.43
2023-05-08T05:30:34.758Z,10.94
2023-05-08T05:33:01.400Z,11.85
2023-05-08T05:35:28.076Z,12.94
2023-05-08T05:37:55.945Z,14.84
2023-05-08T05:40:24.237Z,16.17
2023-05-08T05:42:51.154Z,16.81
2023-05-08T05:45:17.964Z,17.84
2023-05-08T05:47:46.448Z,17.53
2023-05-08T05:50:18.892Z,16.84
2023-05-08T05:52:46.325Z,16.15
2023-05-08T05:55:13.516Z,14.21
2023-05-08T05:57:40.781Z,14.01
2023-05-08T06:00:08.452Z,14.33
2023-05-08T06:02:36.896Z,12.58
2023-05-08T06:05:04.060Z,11.81
2023-05-08T06:07:30.816Z,12.76
2023-05-08T06:09:57.652Z,11.41
2023-05-08T06:12:31.571Z,11.53
2023-05-08T06:14:58.372Z,11.16
2023-05-08T06:17:24.997Z,10.84
2023-05-08T06:19:54.236Z,10.83
2023-05-08T06:22:24.387Z,10.86
2023-05-08T06:24:54.532Z,10.59
2023-05-08T06:27:21.423Z,11.21
2023-05-08T06:29:50.916Z,11.66
2023-05-08T06:32:18.259Z,13.48
2023-05-08T06:34:45.318Z,15.38
2023-05-08T06:37:12.017Z,16.50
2023-05-08T06:39:38.648Z,18.77
2023-05-08T06:42:08.476Z,20.73
2023-05-08T06:44:36.041Z,22.05
2023-05-08T06:47:02.793Z,23.98
2023-05-08T06:49:29.508Z,25.57
2023-05-08T06:51:57.931Z,26.97
2023-05-08T06:54:24.923Z,27.01
2023-05-08T06:56:53.174Z,27.02
2023-05-08T06:59:20.647Z,27.13
2023-05-08T07:01:47.429Z,27.68
2023-05-08T07:04:14.135Z,27.13
2023-05-08T07:06:40.783Z,26.81
2023-05-08T07:09:07.509Z,27.03
2023-05-08T07:11:34.277Z,27.32
2023-05-08T07:14:01.017Z,27.13
2023-05-08T07:19:19.534Z,24.20
2023-05-08T07:21:47.919Z,22.26
2023-05-08T07:24:14.544Z,20.65
2023-05-08T07:26:41.143Z,19.18
2023-05-08T07:29:08.282Z,18.98
2023-05-08T07:31:35.179Z,18.06
2023-05-08T07:34:02.474Z,17.57
2023-05-08T07:36:29.134Z,16.84
2023-05-08T07:38:55.777Z,15.41
2023-05-08T07:41:22.740Z,15.30
2023-05-08T07:43:50.069Z,14.34
2023-05-08T07:46:17.794Z,13.72
2023-05-08T07:48:44.694Z,13.54
2023-05-08T07:51:11.586Z,11.89
2023-05-08T07:53:40.942Z,11.92
2023-05-08T07:56:07.833Z,12.62
2023-05-08T07:58:34.492Z,12.31
2023-05-08T08:01:01.996Z,11.44
2023-05-08T08:03:28.914Z,11.58
2023-05-08T08:05:55.760Z,11.85
2023-05-08T08:08:22.455Z,11.43
2023-05-08T08:10:50.188Z,11.59
2023-05-08T08:13:17.747Z,11.70
2023-05-08T08:15:44.507Z,11.09
2023-05-08T08:18:11.286Z,11.09
2023-05-08T08:20:38.072Z,11.14
2023-05-08T08:23:04.711Z,11.12
2023-05-08T08:25:31.566Z,11.68
2023-05-08T08:27:58.618Z,11.58
2023-05-08T08:30:25.451Z,10.97
2023-05-08T08:32:52.128Z,11.53
2023-05-08T08:35:18.933Z,10.98
2023-05-08T08:37:45.703Z,11.37
2023-05-08T08:40:12.604Z,11.70
2023-05-08T08:42:39.303Z,11.56
2023-05-08T08:45:07.030Z,11.59
2023-05-08T08:47:41.489Z,11.61
2023-05-08T08:50:09.238Z,11.72
2023-05-08T08:52:43.114Z,11.74
2023-05-08T08:55:11.835Z,11.53
2023-05-08T08:57:40.144Z,11.29
2023-05-08T09:00:09.771Z,10.89
2023-05-08T09:02:36.611Z,11.51
2023-05-08T09:05:03.628Z,11.40
2023-05-08T09:07:30.576Z,11.24
2023-05-08T09:09:57.588Z,9.80
2023-05-08T09:12:24.160Z,11.38
2023-05-08T09:14:51.089Z,11.12
2023-05-08T09:17:17.782Z,11.56
2023-05-08T09:19:44.471Z,11.29
2023-05-08T09:22:11.121Z,11.00
2023-05-08T09:24:57.660Z,11.14
2023-05-08T09:27:28.197Z,10.23
2023-05-08T09:30:11.181Z,11.08
2023-05-08T09:32:39.417Z,11.51
2023-05-08T09:35:06.888Z,11.27
2023-05-08T09:37:34.120Z,11.07
2023-05-08T09:40:20.980Z,11.52
2023-05-08T09:42:51.305Z,10.35
2023-05-08T09:45:28.776Z,10.84
2023-05-08T09:47:55.641Z,11.18
2023-05-08T09:50:22.645Z,10.66
2023-05-08T09:52:49.434Z,10.86
2023-05-08T09:55:16.825Z,10.58
2023-05-08T09:57:57.240Z,11.61
2023-05-08T10:00:25.158Z,11.12
2023-05-08T10:03:10.008Z,10.44
2023-05-08T10:05:37.208Z,10.92
2023-05-08T10:08:23.270Z,11.63
2023-05-08T10:10:50.043Z,11.64
2023-05-08T10:13:16.706Z,11.19
2023-05-08T10:15:43.947Z,10.77
2023-05-08T10:18:12.103Z,11.18
2023-05-08T10:20:40.229Z,11.18
2023-05-08T10:23:11.572Z,11.17
2023-05-08T10:25:49.144Z,11.00
2023-05-08T10:28:23.232Z,11.64
2023-05-08T10:30:50.206Z,11.47
2023-05-08T10:33:21.534Z,11.24
2023-05-08T10:35:48.434Z,10.67
2023-05-08T10:38:15.393Z,10.05
2023-05-08T10:40:42.019Z,11.77
2023-05-08T10:43:09.261Z,11.53
2023-05-08T10:45:35.960Z,11.23
2023-05-08T10:48:36.717Z,12.24
2023-05-08T10:51:06.321Z,11.73
2023-05-08T10:53:57.401Z,12.09
2023-05-08T10:56:30.421Z,11.79
2023-05-08T10:58:57.860Z,12.37
2023-05-08T11:01:25.015Z,11.57
2023-05-08T11:03:52.369Z,11.38
2023-05-08T11:06:42.113Z,12.38
2023-05-08T11:09:09.084Z,12.19
2023-05-08T11:11:38.684Z,12.16
2023-05-08T11:14:08.432Z,12.39
2023-05-08T11:16:53.781Z,12.39
2023-05-08T11:19:24.451Z,12.38
2023-05-08T11:22:24.916Z,12.40
2023-05-08T11:25:10.275Z,12.49
2023-05-08T11:27:49.002Z,12.47
2023-05-08T11:30:22.365Z,12.49
2023-05-08T11:33:19.022Z,12.30
2023-05-08T11:35:46.698Z,12.21
2023-05-08T11:38:23.756Z,10.68
2023-05-08T11:41:00.798Z,12.60
2023-05-08T11:43:33.432Z,12.89
2023-05-08T11:46:01.111Z,12.43
2023-05-08T11:48:27.797Z,12.31
2023-05-08T11:50:54.447Z,11.41
2023-05-08T11:53:21.368Z,12.65
2023-05-08T11:55:57.310Z,12.68
2023-05-08T11:58:23.958Z,12.46
2023-05-08T12:00:50.765Z,12.51
2023-05-08T12:03:22.557Z,12.97
2023-05-08T12:05:50.324Z,12.89
2023-05-08T12:08:17.800Z,12.76
2023-05-08T12:10:47.095Z,13.05
2023-05-08T12:13:32.087Z,13.05
2023-05-08T12:15:59.918Z,12.46
2023-05-08T12:18:28.368Z,12.92
2023-05-08T12:20:57.209Z,12.82
2023-05-08T12:23:25.328Z,12.52
2023-05-08T12:25:55.499Z,13.16
2023-05-08T12:28:22.871Z,10.86
2023-05-08T12:30:52.322Z,11.86
2023-05-08T12:33:18.976Z,12.85
2023-05-08T12:35:45.699Z,12.80
2023-05-08T12:38:12.501Z,12.84
2023-05-08T12:40:43.469Z,12.94
2023-05-08T12:43:10.440Z,12.71
2023-05-08T12:45:39.569Z,13.10
2023-05-08T12:48:07.088Z,13.10
2023-05-08T12:50:38.324Z,12.86
2023-05-08T12:53:05.785Z,13.12
2023-05-08T12:55:33.665Z,13.01
2023-05-08T12:58:06.396Z,13.25
2023-05-08T13:00:50.077Z,12.41
2023-05-08T13:03:24.874Z,12.68
2023-05-08T13:05:52.147Z,12.03
2023-05-08T13:08:18.839Z,13.26
2023-05-08T13:10:53.795Z,12.94
2023-05-08T13:13:24.189Z,13.21
2023-05-08T13:15:51.495Z,13.00
2023-05-08T13:18:18.504Z,12.72
2023-05-08T13:20:45.354Z,13.03
2023-05-08T13:23:12.337Z,13.00
2023-05-08T13:25:39.759Z,13.12
2023-05-08T13:28:07.373Z,12.89
2023-05-08T13:30:34.630Z,12.40
2023-05-08T13:33:01.579Z,12.86
2023-05-08T13:35:31.066Z,12.87
2023-05-08T13:37:58.030Z,12.79
2023-05-08T13:40:26.000Z,12.40
2023-05-08T13:42:52.651Z,12.84
2023-05-08T13:45:19.296Z,11.66
2023-05-08T13:47:48.193Z,13.01
2023-05-08T13:50:15.967Z,12.63
2023-05-08T13:52:42.862Z,13.08
2023-05-08T13:55:12.365Z,12.65
2023-05-08T13:57:39.498Z,13.22
2023-05-08T14:00:06.747Z,12.32
2023-05-08T14:02:33.423Z,13.03
2023-05-08T14:05:00.120Z,13.12
2023-05-08T14:07:28.103Z,13.26
2023-05-08T14:09:54.752Z,12.65
2023-05-08T14:12:21.370Z,13.15
2023-05-08T14:14:48.028Z,12.94
2023-05-08T14:17:14.654Z,12.94
2023-05-08T14:19:41.278Z,12.92
2023-05-08T14:22:07.897Z,12.91
2023-05-08T14:24:34.620Z,12.73
2023-05-08T14:27:05.724Z,12.79
2023-05-08T14:29:35.475Z,12.28
2023-05-08T14:32:02.416Z,12.71
2023-05-08T14:34:29.070Z,12.70
2023-05-08T14:36:55.738Z,12.70
2023-05-08T14:39:22.364Z,12.68
2023-05-08T14:42:10.245Z,11.48
2023-05-08T14:44:35.731Z,12.48
2023-05-08T14:47:02.375Z,12.41
2023-05-08T14:49:37.454Z,12.53
2023-05-08T14:52:06.171Z,12.36
2023-05-08T14:54:33.010Z,11.93
2023-05-08T14:56:59.978Z,10.73
2023-05-08T14:59:26.783Z,12.12
2023-05-08T15:01:53.421Z,12.30
2023-05-08T15:04:20.382Z,12.15
2023-05-08T15:06:47.177Z,12.62
2023-05-08T15:09:14.040Z,12.35
2023-05-08T15:11:40.803Z,12.08
2023-05-08T15:14:07.620Z,12.36
2023-05-08T15:16:34.314Z,12.25
2023-05-08T15:19:01.408Z,12.09
2023-05-08T15:21:28.546Z,12.09
2023-05-08T15:23:55.700Z,11.89
2023-05-08T15:26:22.860Z,11.91
2023-05-08T15:28:49.650Z,11.90
2023-05-08T15:31:16.446Z,12.19
2023-05-08T15:33:45.093Z,11.85
2023-05-08T15:36:13.007Z,11.54
2023-05-08T15:38:41.062Z,12.12
2023-05-08T15:41:07.871Z,11.66
2023-05-08T15:43:34.523Z,12.19
2023-05-08T15:46:01.350Z,12.07
2023-05-08T15:48:28.213Z,11.73
2023-05-08T15:50:54.874Z,12.20
2023-05-08T15:53:21.801Z,11.79
2023-05-08T15:55:49.185Z,11.76
2023-05-08T15:58:16.145Z,11.54
2023-05-08T16:00:45.255Z,10.10
2023-05-08T16:03:12.481Z,11.76
2023-05-08T16:05:39.617Z,11.71
2023-05-08T16:08:07.566Z,11.79
2023-05-08T16:10:34.506Z,11.94
2023-05-08T16:13:01.215Z,11.68
2023-05-08T16:15:27.951Z,11.33
2023-05-08T16:17:56.057Z,11.78
2023-05-08T16:20:22.790Z,11.24
2023-05-08T16:22:54.092Z,11.46
2023-05-08T16:25:20.769Z,11.75
2023-05-08T16:27:47.476Z,10.94
2023-05-08T16:30:14.156Z,11.60
2023-05-08T16:32:42.041Z,11.18
2023-05-08T16:35:09.129Z,10.64
2023-05-08T16:37:37.461Z,11.00
2023-05-08T16:40:05.138Z,11.28
2023-05-08T16:42:31.782Z,11.31
2023-05-08T16:44:58.388Z,10.45
2023-05-08T16:47:25.026Z,10.97
2023-05-08T16:49:51.792Z,11.25
2023-05-08T16:52:18.461Z,11.16
2023-05-08T16:54:45.049Z,11.31
2023-05-08T16:57:11.788Z,10.95
2023-05-08T16:59:38.530Z,11.07
2023-05-08T17:02:05.612Z,11.34
2023-05-08T17:04:32.282Z,10.56
2023-05-08T17:07:00.026Z,10.85
2023-05-08T17:09:27.915Z,11.09
2023-05-08T17:11:54.560Z,10.87
2023-05-08T17:14:21.229Z,9.61
2023-05-08T17:16:47.984Z,10.24
2023-05-08T17:19:14.659Z,9.64
2023-05-08T17:21:41.264Z,9.71
2023-05-08T17:24:08.219Z,10.24
2023-05-08T17:26:35.137Z,10.08
2023-05-08T17:29:01.883Z,10.22
2023-05-08T17:31:28.651Z,8.38
2023-05-08T17:33:55.324Z,9.68
2023-05-08T17:36:21.960Z,8.78
2023-05-08T17:38:50.473Z,9.29
2023-05-08T17:41:17.501Z,9.96
2023-05-08T17:43:44.164Z,9.39
2023-05-08T17:46:10.888Z,9.71
2023-05-08T17:48:37.538Z,9.31
2023-05-08T17:51:04.375Z,8.74
2023-05-08T17:53:31.038Z,9.35
2023-05-08T17:55:58.205Z,8.26
2023-05-08T17:58:24.883Z,8.87
2023-05-08T18:00:51.807Z,9.00
2023-05-08T18:03:18.537Z,9.06
2023-05-08T18:05:45.477Z,8.62
2023-05-08T18:08:12.143Z,8.79
2023-05-08T18:10:39.522Z,8.48
2023-05-08T18:13:06.295Z,8.77
2023-05-08T18:15:36.098Z,8.47
2023-05-08T18:18:02.976Z,7.75
2023-05-08T18:20:29.619Z,8.15
2023-05-08T18:22:56.249Z,8.29
2023-05-08T18:25:22.947Z,8.30
2023-05-08T18:27:50.346Z,8.41
2023-05-08T18:30:17.231Z,8.09
2023-05-08T18:32:43.962Z,7.97
2023-05-08T18:35:10.628Z,8.13
2023-05-08T18:37:37.294Z,7.74
2023-05-08T18:40:05.104Z,7.74
2023-05-08T18:42:31.712Z,7.70
2023-05-08T18:45:00.457Z,7.51
2023-05-08T18:47:27.348Z,7.82
2023-05-08T18:49:54.198Z,7.35
2023-05-08T18:52:20.883Z,6.43
2023-05-08T18:54:47.547Z,7.27
2023-05-08T18:57:14.314Z,5.95
2023-05-08T18:59:41.320Z,7.51
2023-05-08T19:02:08.076Z,7.20
2023-05-08T19:04:34.904Z,6.96
2023-05-08T19:07:03.158Z,7.25
2023-05-08T19:09:29.930Z,6.08
2023-05-08T19:11:56.788Z,5.49
2023-05-08T19:14:23.476Z,5.67
2023-05-08T19:16:50.248Z,6.11
2023-05-08T19:19:18.978Z,7.02
2023-05-08T19:21:45.591Z,6.36
2023-05-08T19:24:12.459Z,7.07
2023-05-08T19:26:39.125Z,6.82
2023-05-08T19:29:05.900Z,6.43
2023-05-08T19:31:32.858Z,6.68
2023-05-08T19:34:00.008Z,7.02
2023-05-08T19:36:26.681Z,6.89
2023-05-08T19:38:53.353Z,6.70
2023-05-08T19:41:20.225Z,5.18
2023-05-08T19:43:46.897Z,6.48
2023-05-08T19:46:13.592Z,5.24
2023-05-08T19:48:40.262Z,6.61
2023-05-08T19:51:07.814Z,6.38
2023-05-08T19:53:34.522Z,5.98
2023-05-08T19:56:01.327Z,6.37
2023-05-08T19:58:27.995Z,6.52
2023-05-08T20:00:54.716Z,6.59
2023-05-08T20:03:21.374Z,6.48
2023-05-08T20:05:48.107Z,6.46
2023-05-08T20:08:14.845Z,6.36
2023-05-08T20:10:41.498Z,6.35
2023-05-08T20:13:08.125Z,6.23
2023-05-08T20:15:34.997Z,6.50
2023-05-08T20:18:01.739Z,6.39
2023-05-08T20:20:29.821Z,6.00
2023-05-08T20:22:56.512Z,4.81
2023-05-08T20:25:23.156Z,6.54
2023-05-08T20:27:49.801Z,6.05
2023-05-08T20:30:16.719Z,6.09
2023-05-08T20:32:43.530Z,6.00
2023-05-08T20:35:10.182Z,5.99
2023-05-08T20:37:43.181Z,6.10
2023-05-08T20:40:10.319Z,4.47
2023-05-08T20:42:36.921Z,6.19
2023-05-08T20:45:04.085Z,6.13
2023-05-08T20:47:30.747Z,6.08
2023-05-08T20:49:57.303Z,5.94
2023-05-08T20:52:23.912Z,5.53
2023-05-08T20:54:50.920Z,5.61
2023-05-08T20:57:18.418Z,5.55
2023-05-08T21:00:03.677Z,6.14
2023-05-08T21:02:30.312Z,5.94
2023-05-08T21:04:57.030Z,5.66
2023-05-08T21:07:23.711Z,5.49
2023-05-08T21:09:50.358Z,5.87
2023-05-08T21:12:16.976Z,5.54
2023-05-08T21:14:44.128Z,5.67
2023-05-08T21:17:10.816Z,3.14
2023-05-08T21:19:37.668Z,4.62
2023-05-08T21:22:05.040Z,5.98
2023-05-08T21:24:49.893Z,5.89
2023-05-08T21:27:16.564Z,5.81
2023-05-08T21:29:43.189Z,6.05
2023-05-08T21:32:10.441Z,5.73
2023-05-08T21:34:37.164Z,6.11
2023-05-08T21:37:03.987Z,5.25
2023-05-08T21:39:30.580Z,5.47
2023-05-08T21:41:57.216Z,5.83
2023-05-08T21:44:23.852Z,5.02
2023-05-08T21:46:50.861Z,5.97
2023-05-08T21:49:17.616Z,5.76
2023-05-08T21:51:45.758Z,5.65
2023-05-08T21:54:12.420Z,5.56
2023-05-08T21:56:39.316Z,5.57
2023-05-08T21:59:07.365Z,5.35
2023-05-08T22:01:34.026Z,4.82
2023-05-08T22:04:00.908Z,5.27
2023-05-08T22:06:27.708Z,5.05
2023-05-08T22:08:54.486Z,5.27
2023-05-08T22:11:22.479Z,5.68
2023-05-08T22:13:49.111Z,5.71
2023-05-08T22:16:15.916Z,5.71
2023-05-08T22:18:42.623Z,5.58
2023-05-08T22:21:09.219Z,5.51
2023-05-08T22:23:35.828Z,5.03
2023-05-08T22:26:03.200Z,4.75
2023-05-08T22:28:29.917Z,5.59
2023-05-08T22:30:56.580Z,5.68
2023-05-08T22:33:23.952Z,5.32
2023-05-08T22:35:50.650Z,5.43
2023-05-08T22:38:17.326Z,5.62
2023-05-08T22:40:43.969Z,4.81
2023-05-08T22:43:10.576Z,5.22
2023-05-08T22:45:37.223Z,4.58
2023-05-08T22:48:04.125Z,5.12
2023-05-08T22:50:30.942Z,5.41
2023-05-08T22:52:57.631Z,5.37
2023-05-08T22:55:24.222Z,5.04
2023-05-08T22:57:50.878Z,4.87
2023-05-08T23:00:17.641Z,4.87
2023-05-08T23:02:44.363Z,5.22
2023-05-08T23:05:11.098Z,5.01
2023-05-08T23:07:37.717Z,4.68
2023-05-08T23:10:04.571Z,5.06
2023-05-08T23:12:31.292Z,3.70
2023-05-08T23:14:57.909Z,4.87
2023-05-08T23:17:24.607Z,4.61
2023-05-08T23:19:51.269Z,4.43
2023-05-08T23:22:17.887Z,4.57
2023-05-08T23:24:44.520Z,3.90
2023-05-08T23:27:11.762Z,4.28
2023-05-08T23:29:38.374Z,3.79
2023-05-08T23:32:05.224Z,3.96
2023-05-08T23:34:31.822Z,3.94
2023-05-08T23:36:58.414Z,3.69
2023-05-08T23:39:25.272Z,3.89
2023-05-08T23:41:51.901Z,1.50
2023-05-08T23:44:18.614Z,4.04
2023-05-08T23:46:46.248Z,4.00
2023-05-08T23:49:12.978Z,3.78
2023-05-08T23:51:39.583Z,3.77
2023-05-08T23:54:06.931Z,3.77
2023-05-08T23:56:33.594Z,2.85
2023-05-08T23:59:00.248Z,3.39
